Time;durP1;ratioP1;P1;durP2;ratioP2;P2;SDS_P1;SDS_P2;PMS_P1;PMS_P2;Temp;Humidity;BMP_temperature;BMP_pressure;BME280_temperature;BME280_humidity;BME280_pressure;Samples;Min_cycle;Max_cycle;Signal;HPM_P1;HPM_P2
2020/12/05 00:00:22;;;;;;;23.03;15.53;;;;;;;6.64;100.00;97288.34;4944045;28;20055;-85
2020/12/05 00:03:34;;;;;;;28.90;19.43;;;;;;;6.90;100.00;97288.56;4932090;28;20394;-84
2020/12/05 00:06:43;;;;;;;21.20;15.17;;;;;;;6.90;100.00;97299.16;4933024;28;20042;-84
2020/12/05 00:09:54;;;;;;;30.20;19.70;;;;;;;7.08;100.00;97304.00;4931978;28;20054;-85
2020/12/05 00:13:05;;;;;;;30.30;19.92;;;;;;;7.42;97.98;97298.72;4932249;28;20035;-85
2020/12/05 00:16:19;;;;;;;32.17;18.70;;;;;;;7.27;97.31;97308.59;4932034;28;20046;-85
2020/12/05 00:19:31;;;;;;;32.83;19.77;;;;;;;7.30;98.37;97294.16;4911297;28;20394;-85
2020/12/05 00:22:43;;;;;;;32.93;17.93;;;;;;;6.99;98.26;97308.59;4932497;28;20430;-86
2020/12/05 00:25:52;;;;;;;26.40;17.52;;;;;;;6.93;100.00;97320.00;4931650;28;20402;-86
2020/12/05 00:29:00;;;;;;;39.70;18.48;;;;;;;6.97;100.00;97347.72;4932025;28;20039;-85
2020/12/05 00:32:35;;;;;;;28.77;19.10;;;;;;;7.07;100.00;97331.50;4938205;28;20039;-86
2020/12/05 00:35:47;;;;;;;35.42;21.55;;;;;;;7.33;100.00;97304.34;4931742;28;20066;-85
2020/12/05 00:38:56;;;;;;;27.23;18.75;;;;;;;7.32;100.00;97287.63;4935751;28;20046;-85
2020/12/05 00:42:03;;;;;;;27.38;16.92;;;;;;;7.41;99.56;97297.06;4946442;28;20051;-87
2020/12/05 00:45:10;;;;;;;22.95;15.13;;;;;;;7.25;99.33;97300.84;4924114;28;20050;-86
2020/12/05 00:48:18;;;;;;;26.10;16.38;;;;;;;7.38;99.53;97304.59;4935788;28;20055;-87
2020/12/05 00:51:25;;;;;;;27.98;16.67;;;;;;;7.29;98.61;97319.03;4934112;28;20057;-87
2020/12/05 00:54:33;;;;;;;26.80;16.45;;;;;;;7.33;99.18;97330.84;4935501;28;20057;-86
2020/12/05 00:57:40;;;;;;;32.60;18.10;;;;;;;7.26;98.56;97317.56;4934548;28;20043;-87
2020/12/05 01:00:47;;;;;;;28.50;17.55;;;;;;;7.29;98.49;97308.41;4923789;28;20054;-85
2020/12/05 01:03:53;;;;;;;33.42;20.40;;;;;;;7.28;98.35;97296.19;4934199;28;20050;-85
2020/12/05 01:06:59;;;;;;;38.30;20.90;;;;;;;7.04;99.23;97305.41;4934830;28;20059;-86
2020/12/05 01:10:07;;;;;;;29.27;18.67;;;;;;;7.14;99.49;97312.00;4947007;28;20054;-85
2020/12/05 01:13:13;;;;;;;30.88;20.67;;;;;;;7.09;99.75;97314.38;4934824;28;20054;-84
2020/12/05 01:16:23;;;;;;;32.13;21.02;;;;;;;7.03;99.68;97309.88;4934823;28;20414;-85
2020/12/05 01:19:32;;;;;;;36.78;22.75;;;;;;;6.97;99.97;97310.63;4940964;28;20042;-87
2020/12/05 01:22:40;;;;;;;34.33;20.50;;;;;;;6.89;100.00;97318.72;4912930;28;20372;-86
2020/12/05 01:25:46;;;;;;;33.75;20.08;;;;;;;6.87;100.00;97320.75;4934203;28;20673;-86
2020/12/05 01:28:55;;;;;;;23.23;15.93;;;;;;;6.60;100.00;97319.72;4933509;28;20051;-88
2020/12/05 01:32:05;;;;;;;33.63;21.88;;;;;;;6.55;100.00;97343.28;4934829;28;20109;-86
2020/12/05 01:35:14;;;;;;;31.80;21.43;;;;;;;6.71;100.00;97350.16;4934803;28;20046;-85
2020/12/05 01:38:23;;;;;;;38.70;23.00;;;;;;;6.65;100.00;97377.38;4934833;28;20039;-85
2020/12/05 01:41:33;;;;;;;28.50;19.30;;;;;;;6.55;100.00;97408.66;4940451;28;20046;-84
2020/12/05 01:44:42;;;;;;;32.47;21.70;;;;;;;6.36;100.00;97416.19;4935145;28;20035;-86
2020/12/05 01:47:53;;;;;;;27.90;17.10;;;;;;;6.09;100.00;97417.69;4934310;28;20061;-86
2020/12/05 01:51:04;;;;;;;30.53;19.73;;;;;;;6.10;100.00;97431.75;4935039;28;20039;-85
2020/12/05 01:54:16;;;;;;;24.48;17.55;;;;;;;6.14;100.00;97435.66;4934146;28;20046;-86
2020/12/05 01:57:27;;;;;;;42.53;16.87;;;;;;;6.08;100.00;97439.88;4934869;28;20479;-86
2020/12/05 02:00:37;;;;;;;36.33;15.87;;;;;;;5.97;100.00;97435.03;4934448;28;20047;-86
2020/12/05 02:03:44;;;;;;;42.57;21.90;;;;;;;6.16;100.00;97429.19;4934102;28;20390;-84
2020/12/05 02:07:24;;;;;;;44.07;18.20;;;;;;;6.01;100.00;97446.09;4934390;28;20047;-85
2020/12/05 02:10:41;;;;;;;223.53;27.60;;;;;;;6.35;100.00;97446.31;4934244;28;20043;-85
2020/12/05 02:13:53;;;;;;;103.27;20.97;;;;;;;6.27;100.00;97424.41;4934373;28;20051;-85
2020/12/05 02:17:05;;;;;;;117.67;22.27;;;;;;;6.55;99.37;97421.91;4933275;28;20081;-84
2020/12/05 02:20:17;;;;;;;216.50;24.80;;;;;;;6.48;97.20;97432.44;4933861;28;20052;-85
2020/12/05 02:23:28;;;;;;;241.40;24.13;;;;;;;5.97;99.33;97439.50;4933073;28;20419;-84
2020/12/05 02:26:46;;;;;;;285.27;25.00;;;;;;;6.12;97.77;97441.16;4936261;28;20045;-84
2020/12/05 02:30:00;;;;;;;41.23;16.00;;;;;;;5.73;100.00;97443.22;4933390;28;20062;-84
2020/12/05 02:33:12;;;;;;;89.63;17.90;;;;;;;5.82;100.00;97447.41;4933545;28;20047;-84
2020/12/05 02:36:23;;;;;;;141.23;23.57;;;;;;;5.99;100.00;97463.97;4939216;28;20608;-83
2020/12/05 02:39:44;;;;;;;155.30;21.30;;;;;;;5.99;97.79;97453.38;4934576;28;20051;-83
2020/12/05 02:43:01;;;;;;;75.47;17.50;;;;;;;5.96;97.08;97443.16;4934923;28;20054;-83
2020/12/05 02:46:16;;;;;;;68.43;19.67;;;;;;;5.51;99.55;97426.41;4934095;28;20050;-83
2020/12/05 02:49:27;;;;;;;107.70;16.88;;;;;;;5.51;100.00;97452.84;4933718;28;20050;-83
2020/12/05 02:52:42;;;;;;;33.47;14.07;;;;;;;5.63;100.00;97464.63;4934618;28;20043;-83
2020/12/05 02:55:56;;;;;;;22.63;11.47;;;;;;;5.44;100.00;97449.28;4933605;28;20051;-84
2020/12/05 02:59:31;;;;;;;64.17;15.53;;;;;;;5.50;99.70;97427.41;4934193;28;20058;-83
2020/12/05 03:02:46;;;;;;;49.70;14.83;;;;;;;5.56;99.38;97424.03;4935942;28;20051;-83
2020/12/05 03:05:57;;;;;;;51.63;14.67;;;;;;;5.43;99.80;97429.13;4949751;28;20035;-83
2020/12/05 03:09:17;;;;;;;43.20;14.65;;;;;;;5.54;99.04;97412.03;4925581;28;20498;-82
2020/12/05 03:12:27;;;;;;;41.33;14.23;;;;;;;5.42;99.84;97422.22;4933722;28;20501;-83
2020/12/05 03:15:35;;;;;;;20.70;12.97;;;;;;;5.52;99.65;97414.03;4944081;28;20047;-83
2020/12/05 03:18:42;;;;;;;61.40;14.00;;;;;;;5.31;99.82;97439.31;4944223;28;20051;-84
2020/12/05 03:21:54;;;;;;;55.55;15.43;;;;;;;5.60;100.00;97437.72;4932715;28;20053;-84
2020/12/05 03:25:04;;;;;;;30.20;15.07;;;;;;;5.63;99.81;97450.59;4932581;28;20039;-83
2020/12/05 03:28:11;;;;;;;21.47;12.87;;;;;;;5.84;100.00;97452.53;4921581;28;20050;-83
2020/12/05 03:31:34;;;;;;;75.00;14.73;;;;;;;5.66;99.07;97468.75;4921332;28;20206;-83
2020/12/05 03:34:44;;;;;;;84.00;14.80;;;;;;;5.60;99.13;97470.28;4931552;28;20046;-83
2020/12/05 03:38:02;;;;;;;99.10;15.87;;;;;;;5.58;98.75;97471.44;4934407;28;20402;-83
2020/12/05 03:41:13;;;;;;;109.27;14.77;;;;;;;5.64;99.57;97455.72;4943961;28;20482;-83
2020/12/05 03:44:20;;;;;;;100.83;15.60;;;;;;;5.72;100.00;97468.00;4932729;28;20608;-83
2020/12/05 03:47:29;;;;;;;41.53;13.57;;;;;;;5.81;100.00;97470.38;4932120;28;20058;-83
2020/12/05 03:50:36;;;;;;;55.47;14.43;;;;;;;5.85;99.99;97470.84;4931471;28;20047;-83
2020/12/05 03:53:41;;;;;;;35.80;13.93;;;;;;;5.92;100.00;97485.00;4931882;28;20050;-83
2020/12/05 03:56:48;;;;;;;59.90;17.87;;;;;;;6.00;100.00;97481.47;4932447;28;20059;-83
2020/12/05 03:59:55;;;;;;;167.10;19.90;;;;;;;6.00;100.00;97471.72;4931875;28;20050;-83
2020/12/05 04:03:01;;;;;;;57.03;16.97;;;;;;;5.99;100.00;97470.06;4932089;28;20057;-83
2020/12/05 04:06:08;;;;;;;121.17;19.53;;;;;;;6.09;100.00;97473.25;4932469;28;20043;-83
2020/12/05 04:09:14;;;;;;;210.53;24.03;;;;;;;6.15;100.00;97480.47;4947718;28;20046;-84
2020/12/05 04:12:23;;;;;;;222.20;22.37;;;;;;;6.26;100.00;97483.63;4934275;28;20494;-85
2020/12/05 04:15:32;;;;;;;139.87;20.80;;;;;;;5.79;100.00;97488.25;4935012;28;20074;-84
2020/12/05 04:18:42;;;;;;;70.17;19.90;;;;;;;6.05;100.00;97487.03;4936911;28;20042;-84
2020/12/05 04:21:49;;;;;;;57.73;19.83;;;;;;;6.21;100.00;97497.44;4935535;28;20077;-85
2020/12/05 04:24:57;;;;;;;65.93;22.63;;;;;;;6.30;100.00;97495.50;4937626;28;20501;-84
2020/12/05 04:28:02;;;;;;;50.47;20.30;;;;;;;6.34;100.00;97499.44;4947000;28;20051;-85
2020/12/05 04:31:07;;;;;;;37.50;17.83;;;;;;;6.35;100.00;97493.97;4939686;28;20050;-84
2020/12/05 04:34:13;;;;;;;41.13;19.43;;;;;;;6.33;100.00;97493.31;4935318;28;20387;-85
2020/12/05 04:37:19;;;;;;;50.67;19.83;;;;;;;6.40;100.00;97494.22;4935633;28;20419;-85
2020/12/05 04:40:24;;;;;;;57.90;21.53;;;;;;;6.43;100.00;97482.44;4935021;28;20050;-86
2020/12/05 04:43:31;;;;;;;33.40;18.30;;;;;;;6.50;100.00;97481.50;4934943;28;20050;-85
2020/12/05 04:46:38;;;;;;;30.77;18.47;;;;;;;6.64;100.00;97465.78;4934958;28;20073;-85
2020/12/05 04:49:46;;;;;;;24.63;16.60;;;;;;;6.53;100.00;97462.63;4935753;28;20395;-85
2020/12/05 04:52:54;;;;;;;33.35;17.90;;;;;;;6.65;100.00;97480.66;4935005;28;20058;-86
2020/12/05 04:56:02;;;;;;;25.07;16.80;;;;;;;6.64;100.00;97490.44;4934596;28;20557;-85
2020/12/05 04:59:10;;;;;;;29.73;17.90;;;;;;;6.65;100.00;97509.78;4934953;28;20047;-85
2020/12/05 05:02:21;;;;;;;37.60;20.03;;;;;;;6.65;100.00;97501.84;4935092;28;20398;-85
2020/12/05 05:05:28;;;;;;;36.75;19.88;;;;;;;6.85;98.20;97509.00;4935136;28;20054;-87
2020/12/05 05:08:34;;;;;;;41.57;21.23;;;;;;;7.05;96.78;97511.06;4934737;28;20054;-86
2020/12/05 05:11:56;;;;;;;79.90;19.13;;;;;;;6.25;98.50;97511.97;4934291;28;20054;-85
2020/12/05 05:15:29;;;;;;;546.27;35.57;;;;;;;6.06;98.24;97517.78;4951098;28;20478;-85
2020/12/05 05:18:38;;;;;;;556.22;42.35;;;;;;;6.13;98.40;97503.66;4924005;28;20055;-85
2020/12/05 05:21:51;;;;;;;627.50;42.33;;;;;;;5.98;97.12;97526.63;4934419;28;20055;-84
2020/12/05 05:25:09;;;;;;;383.10;32.97;;;;;;;5.38;100.00;97519.53;4935067;28;20478;-85
2020/12/05 05:28:32;;;;;;;463.20;32.53;;;;;;;5.13;100.00;97506.69;4936629;28;20061;-85
2020/12/05 05:31:51;;;;;;;363.23;32.20;;;;;;;5.06;100.00;97531.16;4935858;28;20057;-85
2020/12/05 05:35:12;;;;;;;329.03;31.60;;;;;;;4.99;100.00;97532.84;4934278;28;20046;-85
2020/12/05 05:38:31;;;;;;;377.37;34.03;;;;;;;5.01;100.00;97533.50;4937339;28;20414;-85
2020/12/05 05:41:42;;;;;;;215.23;22.23;;;;;;;4.93;100.00;97544.13;4946413;28;20531;-85
2020/12/05 05:44:55;;;;;;;245.65;27.13;;;;;;;5.00;100.00;97547.69;4950501;28;20047;-83
2020/12/05 05:48:07;;;;;;;225.97;25.43;;;;;;;5.04;100.00;97538.44;4940240;28;20103;-83
2020/12/05 05:51:13;;;;;;;62.67;20.10;;;;;;;5.41;100.00;97539.50;4933647;28;20042;-84
2020/12/05 05:54:25;;;;;;;106.60;23.33;;;;;;;5.55;100.00;97556.38;4933467;28;20050;-84
2020/12/05 05:57:32;;;;;;;236.03;30.13;;;;;;;5.64;100.00;97561.47;4933627;28;20059;-85
2020/12/05 06:00:41;;;;;;;89.50;23.13;;;;;;;6.03;100.00;97553.34;4933800;28;20046;-86
2020/12/05 06:04:05;;;;;;;111.88;21.98;;;;;;;6.60;100.00;97551.91;4933747;28;20399;-87
2020/12/05 06:07:18;;;;;;;89.30;20.27;;;;;;;6.04;100.00;97552.34;4945644;28;20058;-86
2020/12/05 06:10:27;;;;;;;282.43;30.40;;;;;;;5.85;98.54;97555.50;4950035;28;20042;-87
2020/12/05 06:13:35;;;;;;;191.83;23.97;;;;;;;5.41;99.61;97568.59;4933448;28;20058;-86
2020/12/05 06:16:44;;;;;;;136.50;24.37;;;;;;;5.20;100.00;97574.47;4933141;28;20051;-88
2020/12/05 06:19:58;;;;;;;45.73;18.40;;;;;;;5.40;97.88;97574.88;4933663;28;20081;-85
2020/12/05 06:23:18;;;;;;;45.10;18.07;;;;;;;5.09;98.81;97583.63;4933227;28;20046;-86
2020/12/05 06:26:33;;;;;;;34.27;15.50;;;;;;;4.93;97.74;97594.31;4934155;28;20131;-86
2020/12/05 06:29:43;;;;;;;19.30;11.30;;;;;;;4.45;97.52;97594.50;4933541;28;20061;-84
2020/12/05 06:32:55;;;;;;;12.90;9.57;;;;;;;4.06;99.09;97605.78;4933272;28;20073;-85
2020/12/05 06:36:03;;;;;;;12.07;8.87;;;;;;;3.85;100.00;97629.22;4934106;28;20069;-84
2020/12/05 06:39:23;;;;;;;12.07;9.20;;;;;;;3.68;99.46;97654.72;4940851;28;20053;-86
2020/12/05 06:42:46;;;;;;;13.43;9.60;;;;;;;3.49;99.57;97670.84;4934490;28;20170;-87
2020/12/05 06:45:55;;;;;;;14.68;9.05;;;;;;;3.43;99.25;97672.31;4933661;28;20043;-87
2020/12/05 06:49:05;;;;;;;13.93;9.30;;;;;;;3.47;99.17;97678.91;4949385;28;20058;-87
2020/12/05 06:52:25;;;;;;;13.37;8.87;;;;;;;3.56;98.65;97675.31;4938568;28;20382;-88
2020/12/05 06:55:38;;;;;;;12.97;9.50;;;;;;;3.72;98.30;97677.16;4933456;28;20395;-88
2020/12/05 06:59:13;;;;;;;13.10;8.60;;;;;;;3.77;97.35;97668.75;4922915;28;20521;-87
2020/12/05 07:02:35;;;;;;;15.10;10.03;;;;;;;3.83;98.29;97658.38;4934448;28;20066;-87
2020/12/05 07:05:49;;;;;;;12.07;8.70;;;;;;;3.89;97.68;97657.72;4944418;28;20063;-86
2020/12/05 07:09:03;;;;;;;13.40;8.50;;;;;;;4.05;96.51;97653.41;4934161;28;20588;-84
2020/12/05 07:12:22;;;;;;;11.57;7.77;;;;;;;4.03;96.84;97677.31;4933928;28;20035;-86
2020/12/05 07:15:38;;;;;;;13.47;8.93;;;;;;;4.38;96.82;97656.84;4934289;28;20072;-85
2020/12/05 07:18:49;;;;;;;13.60;8.63;;;;;;;4.33;95.35;97663.47;4935029;29;20047;-85
2020/12/05 07:21:59;;;;;;;12.67;8.33;;;;;;;4.41;95.77;97672.34;4918281;28;20394;-85
2020/12/05 07:25:13;;;;;;;16.10;10.40;;;;;;;4.66;97.15;97671.28;4933141;28;20038;-86
2020/12/05 07:28:23;;;;;;;16.87;10.00;;;;;;;4.92;98.04;97669.25;4933176;28;20039;-86
2020/12/05 07:31:33;;;;;;;17.90;11.60;;;;;;;4.95;96.92;97676.84;4938387;28;20042;-87
2020/12/05 07:34:43;;;;;;;17.63;10.13;;;;;;;5.03;96.62;97682.06;4932917;28;20398;-87
2020/12/05 07:37:48;;;;;;;20.53;12.47;;;;;;;5.14;96.65;97682.69;4931746;28;20059;-88
2020/12/05 07:40:51;;;;;;;16.93;10.47;;;;;;;5.28;97.65;97688.06;4931691;28;20062;-88
2020/12/05 07:43:59;;;;;;;19.50;12.87;;;;;;;5.43;97.66;97688.13;4931681;28;20067;-87
2020/12/05 07:47:20;;;;;;;18.07;11.53;;;;;;;5.35;96.49;97696.13;4935421;28;20050;-87
2020/12/05 07:50:33;;;;;;;22.20;13.73;;;;;;;5.39;97.20;97687.69;4936298;28;20047;-88
2020/12/05 07:53:40;;;;;;;12.13;9.03;;;;;;;5.40;96.52;97691.97;4935770;28;20054;-88
2020/12/05 07:56:46;;;;;;;17.10;10.13;;;;;;;5.40;96.36;97685.88;4924700;28;20054;-88
2020/12/05 08:00:01;;;;;;;15.87;10.20;;;;;;;5.47;96.65;97683.34;4935694;28;20050;-89
2020/12/05 08:03:19;;;;;;;16.37;10.30;;;;;;;5.43;96.52;97696.06;4935973;28;20051;-88
2020/12/05 08:06:39;;;;;;;19.90;13.43;;;;;;;4.98;97.07;97692.31;4947364;28;20062;-88
2020/12/05 08:09:45;;;;;;;19.17;12.73;;;;;;;5.12;98.52;97687.31;4935516;28;20051;-87
2020/12/05 08:12:59;;;;;;;18.83;12.27;;;;;;;5.29;98.52;97694.19;4935657;28;20046;-88
2020/12/05 08:16:07;;;;;;;17.67;11.77;;;;;;;5.36;98.94;97697.78;4923948;28;20047;-88
2020/12/05 08:19:11;;;;;;;22.47;13.83;;;;;;;5.88;100.00;97708.56;4935175;28;20470;-87
2020/12/05 08:22:16;;;;;;;18.50;12.57;;;;;;;5.53;98.72;97695.88;4935645;28;20470;-87
2020/12/05 08:25:22;;;;;;;16.80;11.33;;;;;;;5.48;98.32;97692.91;4935615;28;20051;-87
2020/12/05 08:28:52;;;;;;;19.90;13.53;;;;;;;5.53;98.85;97699.34;4943748;28;20501;-87
2020/12/05 08:31:58;;;;;;;18.33;12.45;;;;;;;5.62;99.07;97700.94;4935632;28;20046;-87
2020/12/05 08:35:09;;;;;;;20.47;10.93;;;;;;;5.69;98.66;97699.22;4923761;28;20390;-87
2020/12/05 08:38:25;;;;;;;21.37;13.00;;;;;;;5.57;98.33;97692.69;4946779;28;20081;-86
2020/12/05 08:41:31;;;;;;;23.47;14.23;;;;;;;5.68;98.44;97689.66;4935376;28;20425;-86
2020/12/05 08:44:37;;;;;;;21.43;13.40;;;;;;;5.76;98.83;97699.38;4935153;28;20498;-84
2020/12/05 08:47:49;;;;;;;25.47;14.37;;;;;;;5.74;99.13;97704.84;4935129;28;20042;-87
2020/12/05 08:51:06;;;;;;;36.13;15.80;;;;;;;5.65;98.59;97720.94;4940316;28;20375;-85
2020/12/05 08:54:11;;;;;;;31.50;15.10;;;;;;;5.61;99.07;97724.91;4939817;28;20043;-86
2020/12/05 08:57:23;;;;;;;22.60;12.97;;;;;;;5.69;99.33;97738.06;4941825;28;20062;-86
2020/12/05 09:00:33;;;;;;;25.20;13.57;;;;;;;5.71;99.72;97725.50;4927187;28;20050;-86
2020/12/05 09:03:40;;;;;;;21.03;14.00;;;;;;;5.76;99.19;97741.69;4935129;28;20474;-86
2020/12/05 09:06:46;;;;;;;29.20;16.33;;;;;;;5.84;99.88;97744.28;4934826;28;20394;-86
2020/12/05 09:09:51;;;;;;;27.97;15.37;;;;;;;5.93;99.23;97737.94;4933773;28;20063;-86
2020/12/05 09:13:08;;;;;;;19.87;12.90;;;;;;;5.87;99.19;97745.75;4940086;28;20043;-86
2020/12/05 09:16:13;;;;;;;20.90;13.17;;;;;;;5.89;99.25;97734.03;4933652;28;20051;-85
2020/12/05 09:19:27;;;;;;;20.87;12.13;;;;;;;5.88;99.01;97742.09;4934255;28;20055;-85
2020/12/05 09:22:35;;;;;;;20.90;13.53;;;;;;;6.03;99.68;97754.41;4950435;28;20043;-85
2020/12/05 09:25:43;;;;;;;20.40;11.43;;;;;;;6.35;100.00;97756.03;4935063;28;20044;-85
2020/12/05 09:28:47;;;;;;;17.10;11.37;;;;;;;6.23;99.33;97761.91;4934308;28;20047;-85
2020/12/05 09:31:56;;;;;;;16.33;10.47;;;;;;;6.19;99.41;97764.06;4934155;28;20054;-86
2020/12/05 09:35:04;;;;;;;14.52;10.52;;;;;;;6.29;99.83;97756.72;4945330;28;20490;-86
2020/12/05 09:38:10;;;;;;;19.13;11.85;;;;;;;6.24;99.20;97748.50;4933568;28;20054;-86
2020/12/05 09:41:16;;;;;;;14.27;9.87;;;;;;;6.40;99.15;97753.66;4933884;28;20050;-86
2020/12/05 09:44:23;;;;;;;17.70;10.63;;;;;;;6.31;98.93;97757.38;4923236;28;20050;-85
2020/12/05 09:47:29;;;;;;;17.98;9.48;;;;;;;6.27;98.98;97748.13;4933403;28;20051;-84
2020/12/05 09:50:36;;;;;;;16.33;10.47;;;;;;;6.02;99.74;97758.06;4934486;28;20065;-83
2020/12/05 09:53:41;;;;;;;11.60;8.47;;;;;;;5.94;100.00;97750.19;4933295;28;20054;-85
2020/12/05 09:56:46;;;;;;;15.60;10.47;;;;;;;6.20;100.00;97733.13;4933920;28;20058;-86
2020/12/05 09:59:51;;;;;;;15.47;10.30;;;;;;;6.13;100.00;97725.94;4933375;28;20069;-84
2020/12/05 10:02:57;;;;;;;25.23;13.00;;;;;;;6.09;100.00;97729.91;4933847;28;20474;-83
2020/12/05 10:06:02;;;;;;;23.50;13.03;;;;;;;6.18;100.00;97735.97;4933336;28;20375;-84
2020/12/05 10:09:09;;;;;;;31.43;14.80;;;;;;;6.28;100.00;97743.66;4932918;28;20047;-86
2020/12/05 10:12:15;;;;;;;18.40;11.30;;;;;;;6.45;100.00;97751.31;4933356;28;20065;-85
2020/12/05 10:15:21;;;;;;;17.67;10.93;;;;;;;6.54;100.00;97760.00;4933217;28;20058;-85
2020/12/05 10:18:28;;;;;;;15.60;10.20;;;;;;;6.53;100.00;97753.88;4933211;28;20055;-84
2020/12/05 10:21:35;;;;;;;16.83;10.18;;;;;;;6.38;100.00;97750.34;4938533;28;20486;-84
2020/12/05 10:24:43;;;;;;;12.13;7.43;;;;;;;6.58;100.00;97744.56;4933873;28;20509;-85
2020/12/05 10:27:49;;;;;;;11.37;7.03;;;;;;;6.73;100.00;97737.47;4922352;28;20057;-85
2020/12/05 10:30:55;;;;;;;10.95;7.78;;;;;;;6.68;100.00;97735.38;4921331;28;20055;-85
2020/12/05 10:34:14;;;;;;;21.77;12.57;;;;;;;6.29;100.00;97751.41;4961930;28;20050;-85
2020/12/05 10:37:31;;;;;;;45.23;20.23;;;;;;;6.43;100.00;97752.47;4951166;28;20073;-84
2020/12/05 10:40:37;;;;;;;19.00;10.90;;;;;;;6.66;100.00;97757.75;4933812;28;20058;-85
2020/12/05 10:43:44;;;;;;;13.40;9.03;;;;;;;6.80;100.00;97728.63;4944689;28;20050;-84
2020/12/05 10:46:51;;;;;;;13.70;6.25;;;;;;;7.15;100.00;97695.28;4932559;28;20046;-85
2020/12/05 10:50:00;;;;;;;7.10;4.43;;;;;;;6.97;100.00;97667.50;4922047;28;20486;-84
2020/12/05 10:53:10;;;;;;;8.35;5.32;;;;;;;6.95;100.00;97675.66;4922175;28;20685;-85
2020/12/05 10:56:29;;;;;;;7.28;3.97;;;;;;;6.83;100.00;97675.28;4922665;28;20043;-85
2020/12/05 10:59:39;;;;;;;5.45;3.60;;;;;;;6.77;100.00;97685.78;4923290;28;20475;-84
2020/12/05 11:02:51;;;;;;;5.93;3.25;;;;;;;6.71;100.00;97655.56;4950781;28;20383;-85
2020/12/05 11:05:55;;;;;;;5.72;2.05;;;;;;;6.75;100.00;97675.38;4920604;28;20050;-84
2020/12/05 11:09:02;;;;;;;4.65;2.40;;;;;;;6.68;100.00;97645.31;4937800;28;20046;-85
2020/12/05 11:12:07;;;;;;;6.40;2.63;;;;;;;6.59;100.00;97650.91;4944019;28;20054;-85
2020/12/05 11:15:12;;;;;;;2.90;1.20;;;;;;;6.52;100.00;97659.53;4932486;28;20514;-86
2020/12/05 11:18:17;;;;;;;2.00;1.37;;;;;;;6.33;100.00;97675.97;4931465;28;20058;-86
2020/12/05 11:21:22;;;;;;;2.47;1.10;;;;;;;6.23;100.00;97669.28;4937329;28;20043;-85
2020/12/05 11:24:28;;;;;;;2.13;1.30;;;;;;;6.16;100.00;97661.22;4917459;28;20060;-85
2020/12/05 11:27:40;;;;;;;1.95;1.50;;;;;;;6.09;100.00;97678.81;4939201;28;20066;-86
2020/12/05 11:30:43;;;;;;;5.80;1.90;;;;;;;6.09;100.00;97676.16;4920577;28;20054;-86
2020/12/05 11:33:53;;;;;;;4.40;1.43;;;;;;;6.13;100.00;97678.28;4937951;28;20053;-85
2020/12/05 11:36:58;;;;;;;4.70;1.33;;;;;;;6.29;100.00;97669.38;4921161;28;20054;-85
2020/12/05 11:40:03;;;;;;;3.13;1.20;;;;;;;6.38;100.00;97657.69;4921062;28;20387;-85
2020/12/05 11:43:09;;;;;;;1.63;1.20;;;;;;;6.19;100.00;97644.16;4921084;28;20046;-85
2020/12/05 11:46:20;;;;;;;;;;;;;;;5.87;100.00;97635.47;4945233;28;20054;-84
2020/12/05 11:49:27;;;;;;;1.90;0.93;;;;;;;6.02;100.00;97644.28;4931544;28;19925;-85
2020/12/05 11:52:35;;;;;;;1.03;0.60;;;;;;;5.88;100.00;97649.53;4921213;28;20506;-85
2020/12/05 11:55:41;;;;;;;2.83;1.13;;;;;;;5.49;100.00;97639.06;4937512;28;20043;-85
2020/12/05 11:58:47;;;;;;;1.60;1.10;;;;;;;5.42;100.00;97631.03;4920892;28;20406;-84
2020/12/05 12:01:53;;;;;;;3.27;1.27;;;;;;;5.39;100.00;97636.66;4920447;28;20055;-83
2020/12/05 12:04:59;;;;;;;3.30;1.87;;;;;;;5.43;100.00;97643.22;4936736;28;20412;-84
2020/12/05 12:08:03;;;;;;;5.53;1.73;;;;;;;5.51;100.00;97637.06;4920709;28;20058;-85
2020/12/05 12:11:07;;;;;;;3.90;2.10;;;;;;;5.41;100.00;97626.72;4901865;28;20047;-85
2020/12/05 12:14:12;;;;;;;2.33;1.63;;;;;;;5.34;100.00;97638.97;4909400;28;20046;-83
2020/12/05 12:17:18;;;;;;;5.20;2.07;;;;;;;5.28;100.00;97642.31;4919987;28;20054;-83
2020/12/05 12:20:24;;;;;;;5.50;2.57;;;;;;;5.31;100.00;97623.50;4932365;28;20410;-83
2020/12/05 12:23:31;;;;;;;4.63;2.10;;;;;;;5.46;100.00;97621.72;4931793;28;20062;-83
2020/12/05 12:26:36;;;;;;;4.27;2.10;;;;;;;5.51;100.00;97597.41;4920396;28;20581;-82
2020/12/05 12:29:43;;;;;;;5.20;2.10;;;;;;;5.28;100.00;97597.41;4947960;28;20047;-83
2020/12/05 12:32:50;;;;;;;3.40;1.77;;;;;;;5.12;100.00;97555.22;4938139;28;20042;-83
2020/12/05 12:36:02;;;;;;;3.23;2.10;;;;;;;4.95;100.00;97538.69;4925362;28;20043;-83
2020/12/05 12:39:14;;;;;;;8.97;3.47;;;;;;;5.10;100.00;97589.75;4948101;28;20047;-83
2020/12/05 12:42:27;;;;;;;4.17;2.60;;;;;;;5.18;100.00;97610.84;4934945;28;20046;-85
2020/12/05 12:45:38;;;;;;;5.90;2.77;;;;;;;5.22;100.00;97608.66;4947053;28;20071;-85
2020/12/05 12:48:44;;;;;;;4.30;2.60;;;;;;;5.27;100.00;97604.50;4935085;28;20055;-84
2020/12/05 12:51:50;;;;;;;5.03;2.83;;;;;;;5.16;100.00;97627.88;4935315;28;20059;-84
2020/12/05 12:54:58;;;;;;;2.80;2.20;;;;;;;5.02;100.00;97614.38;4913124;28;20057;-84
2020/12/05 12:58:19;;;;;;;2.53;2.13;;;;;;;4.91;100.00;97575.16;4935151;28;20513;-83
2020/12/05 13:01:26;;;;;;;4.40;2.60;;;;;;;5.02;100.00;97556.28;4936991;28;20066;-84
2020/12/05 13:04:32;;;;;;;8.70;2.87;;;;;;;5.00;100.00;97574.13;4939782;28;20054;-84
2020/12/05 13:07:37;;;;;;;4.30;2.87;;;;;;;4.99;100.00;97604.16;4934224;28;20043;-84
2020/12/05 13:10:42;;;;;;;4.70;2.87;;;;;;;4.91;100.00;97612.13;4934497;28;20062;-84
2020/12/05 13:13:48;;;;;;;3.37;2.53;;;;;;;5.19;100.00;97603.75;4934090;28;20057;-84
2020/12/05 13:16:58;;;;;;;4.07;2.80;;;;;;;5.67;100.00;97610.50;4934064;28;20070;-84
2020/12/05 13:20:04;;;;;;;5.90;2.80;;;;;;;5.34;100.00;97626.59;4923791;28;20062;-84
2020/12/05 13:23:11;;;;;;;5.83;2.60;;;;;;;5.43;100.00;97616.78;4924153;28;20050;-83
2020/12/05 13:26:23;;;;;;;3.77;2.43;;;;;;;5.39;100.00;97594.34;4934726;28;20062;-83
2020/12/05 13:29:31;;;;;;;2.90;2.23;;;;;;;5.50;100.00;97583.38;4934735;28;20414;-84
2020/12/05 13:32:44;;;;;;;1.63;0.80;;;;;;;5.33;98.75;97584.47;4925116;28;20047;-85
2020/12/05 13:36:05;;;;;;;4.23;1.80;;;;;;;5.27;100.00;97586.00;4952528;28;20045;-85
2020/12/05 13:39:17;;;;;;;3.57;1.83;;;;;;;5.47;100.00;97581.06;4935104;28;20039;-85
2020/12/05 13:42:42;;;;;;;3.23;2.13;;;;;;;5.54;100.00;97587.31;4946997;28;20038;-84
2020/12/05 13:45:52;;;;;;;5.63;2.30;;;;;;;5.58;100.00;97587.78;4934899;28;20050;-84
2020/12/05 13:49:02;;;;;;;2.67;2.10;;;;;;;5.69;99.95;97604.03;4935102;28;20042;-84
2020/12/05 13:53:10;;;;;;;3.47;2.17;;;;;;;5.70;100.00;97599.56;4951675;28;20050;-85
2020/12/05 13:56:20;;;;;;;2.93;2.00;;;;;;;5.70;100.00;97589.00;4945896;28;20525;-85
2020/12/05 13:59:27;;;;;;;5.10;2.30;;;;;;;5.71;100.00;97574.78;4944681;28;20062;-85
2020/12/05 14:02:34;;;;;;;3.50;1.47;;;;;;;6.09;100.00;97570.34;4933937;28;20491;-85
2020/12/05 14:05:39;;;;;;;2.83;1.60;;;;;;;5.90;99.36;97586.72;4933842;28;20061;-85
2020/12/05 14:08:47;;;;;;;3.37;1.63;;;;;;;5.93;98.52;97602.22;4933942;28;20054;-85
2020/12/05 14:11:53;;;;;;;3.40;1.77;;;;;;;6.05;99.17;97628.06;4933824;28;20042;-86
2020/12/05 14:15:01;;;;;;;1.70;1.60;;;;;;;6.08;98.36;97626.91;4934424;28;20474;-85
2020/12/05 14:18:07;;;;;;;2.00;1.60;;;;;;;6.18;97.47;97579.00;4932614;28;20062;-85
2020/12/05 14:21:13;;;;;;;2.13;1.40;;;;;;;6.12;97.63;97591.16;4933707;28;20043;-84
2020/12/05 14:24:21;;;;;;;1.77;1.67;;;;;;;6.07;98.25;97567.88;4933509;28;20050;-84
2020/12/05 14:27:27;;;;;;;1.70;1.37;;;;;;;5.84;97.50;97558.31;4938492;28;20038;-85
2020/12/05 14:30:34;;;;;;;3.10;1.50;;;;;;;5.97;99.01;97556.72;4933227;28;20058;-86
2020/12/05 14:33:39;;;;;;;4.33;1.50;;;;;;;6.01;98.98;97559.84;4933289;28;20042;-86
2020/12/05 14:36:54;;;;;;;4.07;1.97;;;;;;;5.97;98.65;97572.59;4921598;28;20056;-84
2020/12/05 14:40:00;;;;;;;2.03;1.70;;;;;;;5.97;99.16;97585.81;4932922;28;20383;-85
2020/12/05 14:43:08;;;;;;;3.00;1.70;;;;;;;5.97;98.80;97583.19;4945271;28;20047;-83